sensor_id;sensor_type;location;lat;lon;timestamp;pressure;altitude;pressure_sealevel;temperature;humidity
9289;BME280;4683;50.864;12.086;2023-07-24T00:01:06;98349.47;;;22.78;100.00
9289;BME280;4683;50.864;12.086;2023-07-24T00:03:50;98354.34;;;22.66;100.00
9289;BME280;4683;50.864;12.086;2023-07-24T00:06:21;98353.03;;;22.63;100.00
9289;BME280;4683;50.864;12.086;2023-07-24T00:08:49;98355.50;;;22.54;100.00
9289;BME280;4683;50.864;12.086;2023-07-24T00:11:22;98344.22;;;22.58;100.00
9289;BME280;4683;50.864;12.086;2023-07-24T00:13:51;98336.34;;;22.71;100.00
9289;BME280;4683;50.864;12.086;2023-07-24T00:16:20;98338.75;;;22.73;100.00
9289;BME280;4683;50.864;12.086;2023-07-24T00:18:49;98340.09;;;22.70;100.00
9289;BME280;4683;50.864;12.086;2023-07-24T00:21:17;98339.75;;;22.82;100.00
9289;BME280;4683;50.864;12.086;2023-07-24T00:23:46;98337.59;;;22.89;99.88
9289;BME280;4683;50.864;12.086;2023-07-24T00:26:14;98337.56;;;22.94;99.07
9289;BME280;4683;50.864;12.086;2023-07-24T00:28:46;98334.31;;;22.97;98.83
9289;BME280;4683;50.864;12.086;2023-07-24T00:31:16;98335.38;;;22.96;98.74
9289;BME280;4683;50.864;12.086;2023-07-24T00:33:44;98333.75;;;23.00;98.75
9289;BME280;4683;50.864;12.086;2023-07-24T00:36:16;98324.91;;;22.95;99.20
9289;BME280;4683;50.864;12.086;2023-07-24T00:38:44;98333.81;;;22.90;99.79
9289;BME280;4683;50.864;12.086;2023-07-24T00:41:17;98326.53;;;22.96;99.46
9289;BME280;4683;50.864;12.086;2023-07-24T00:43:46;98327.88;;;22.98;98.60
9289;BME280;4683;50.864;12.086;2023-07-24T00:46:15;98324.34;;;22.98;98.81
9289;BME280;4683;50.864;12.086;2023-07-24T00:48:43;98323.56;;;22.92;99.40
9289;BME280;4683;50.864;12.086;2023-07-24T00:51:12;98314.72;;;22.87;100.00
9289;BME280;4683;50.864;12.086;2023-07-24T00:53:40;98310.72;;;22.79;100.00
9289;BME280;4683;50.864;12.086;2023-07-24T00:56:09;98321.00;;;22.72;100.00
9289;BME280;4683;50.864;12.086;2023-07-24T00:58:38;98316.72;;;22.66;100.00
9289;BME280;4683;50.864;12.086;2023-07-24T01:01:11;98310.81;;;22.64;100.00
9289;BME280;4683;50.864;12.086;2023-07-24T01:03:43;98315.66;;;22.62;100.00
9289;BME280;4683;50.864;12.086;2023-07-24T01:06:13;98311.09;;;22.62;100.00
9289;BME280;4683;50.864;12.086;2023-07-24T01:08:42;98312.47;;;22.60;100.00
9289;BME280;4683;50.864;12.086;2023-07-24T01:11:16;98309.00;;;22.54;100.00
9289;BME280;4683;50.864;12.086;2023-07-24T01:13:52;98304.41;;;22.54;100.00
9289;BME280;4683;50.864;12.086;2023-07-24T01:16:31;98308.44;;;22.57;100.00
9289;BME280;4683;50.864;12.086;2023-07-24T01:19:05;98306.81;;;22.56;100.00
9289;BME280;4683;50.864;12.086;2023-07-24T01:21:52;98302.56;;;22.50;100.00
9289;BME280;4683;50.864;12.086;2023-07-24T01:24:35;98311.72;;;22.49;100.00
9289;BME280;4683;50.864;12.086;2023-07-24T01:27:07;98319.53;;;22.45;100.00
9289;BME280;4683;50.864;12.086;2023-07-24T01:29:36;98321.25;;;22.06;100.00
9289;BME280;4683;50.864;12.086;2023-07-24T01:32:05;98324.00;;;21.85;100.00
9289;BME280;4683;50.864;12.086;2023-07-24T01:34:33;98311.41;;;21.81;100.00
9289;BME280;4683;50.864;12.086;2023-07-24T01:37:02;98313.78;;;21.92;100.00
9289;BME280;4683;50.864;12.086;2023-07-24T01:39:33;98311.91;;;21.88;100.00
9289;BME280;4683;50.864;12.086;2023-07-24T01:42:04;98307.91;;;21.85;100.00
9289;BME280;4683;50.864;12.086;2023-07-24T01:44:33;98305.16;;;22.00;100.00
9289;BME280;4683;50.864;12.086;2023-07-24T01:47:02;98299.22;;;22.14;100.00
9289;BME280;4683;50.864;12.086;2023-07-24T01:49:31;98297.59;;;22.23;100.00
9289;BME280;4683;50.864;12.086;2023-07-24T01:51:59;98306.97;;;22.31;100.00
9289;BME280;4683;50.864;12.086;2023-07-24T01:54:27;98303.44;;;22.30;100.00
9289;BME280;4683;50.864;12.086;2023-07-24T01:56:56;98298.66;;;22.27;100.00
9289;BME280;4683;50.864;12.086;2023-07-24T01:59:24;98296.16;;;22.41;100.00
9289;BME280;4683;50.864;12.086;2023-07-24T02:01:55;98296.38;;;22.49;99.04
9289;BME280;4683;50.864;12.086;2023-07-24T02:04:23;98294.47;;;22.55;98.34
9289;BME280;4683;50.864;12.086;2023-07-24T02:06:51;98296.59;;;22.63;97.22
9289;BME280;4683;50.864;12.086;2023-07-24T02:09:21;98289.84;;;22.61;96.87
9289;BME280;4683;50.864;12.086;2023-07-24T02:15:56;98291.06;;;22.34;99.12
9289;BME280;4683;50.864;12.086;2023-07-24T02:18:26;98287.91;;;22.27;99.30
9289;BME280;4683;50.864;12.086;2023-07-24T02:20:54;98293.03;;;22.18;100.00
9289;BME280;4683;50.864;12.086;2023-07-24T02:23:24;98293.31;;;22.17;100.00
9289;BME280;4683;50.864;12.086;2023-07-24T02:25:52;98285.25;;;22.17;100.00
9289;BME280;4683;50.864;12.086;2023-07-24T02:28:21;98280.66;;;22.22;99.96
9289;BME280;4683;50.864;12.086;2023-07-24T02:30:50;98274.50;;;22.22;100.00
9289;BME280;4683;50.864;12.086;2023-07-24T02:33:21;98276.66;;;22.10;100.00
9289;BME280;4683;50.864;12.086;2023-07-24T02:35:54;98276.66;;;22.10;100.00
9289;BME280;4683;50.864;12.086;2023-07-24T02:38:23;98286.88;;;22.02;100.00
9289;BME280;4683;50.864;12.086;2023-07-24T02:40:52;98276.66;;;22.04;100.00
9289;BME280;4683;50.864;12.086;2023-07-24T02:43:20;98275.06;;;22.03;100.00
9289;BME280;4683;50.864;12.086;2023-07-24T02:45:49;98276.38;;;22.06;100.00
9289;BME280;4683;50.864;12.086;2023-07-24T02:48:20;98275.03;;;22.09;100.00
9289;BME280;4683;50.864;12.086;2023-07-24T02:50:50;98273.44;;;22.08;100.00
9289;BME280;4683;50.864;12.086;2023-07-24T02:53:19;98272.63;;;22.02;100.00
9289;BME280;4683;50.864;12.086;2023-07-24T02:55:50;98271.88;;;21.96;100.00
9289;BME280;4683;50.864;12.086;2023-07-24T02:58:20;98264.09;;;21.95;100.00
9289;BME280;4683;50.864;12.086;2023-07-24T03:00:49;98267.84;;;21.94;100.00
9289;BME280;4683;50.864;12.086;2023-07-24T03:03:18;98264.34;;;21.93;100.00
9289;BME280;4683;50.864;12.086;2023-07-24T03:05:49;98260.59;;;21.99;100.00
9289;BME280;4683;50.864;12.086;2023-07-24T03:08:20;98257.59;;;22.01;100.00
9289;BME280;4683;50.864;12.086;2023-07-24T03:10:49;98258.97;;;21.98;99.93
9289;BME280;4683;50.864;12.086;2023-07-24T03:13:22;98255.75;;;21.96;99.90
9289;BME280;4683;50.864;12.086;2023-07-24T03:15:56;98262.44;;;22.04;99.25
9289;BME280;4683;50.864;12.086;2023-07-24T03:18:25;98252.25;;;22.01;98.57
9289;BME280;4683;50.864;12.086;2023-07-24T03:20:54;98253.59;;;21.93;99.27
9289;BME280;4683;50.864;12.086;2023-07-24T03:23:28;98256.06;;;21.90;99.34
9289;BME280;4683;50.864;12.086;2023-07-24T03:25:57;98253.09;;;21.91;98.80
9289;BME280;4683;50.864;12.086;2023-07-24T03:28:30;98252.78;;;22.03;97.97
9289;BME280;4683;50.864;12.086;2023-07-24T03:30:59;98250.31;;;22.07;98.18
9289;BME280;4683;50.864;12.086;2023-07-24T03:33:27;98241.69;;;22.20;96.92
9289;BME280;4683;50.864;12.086;2023-07-24T03:35:57;98243.28;;;22.21;95.94
9289;BME280;4683;50.864;12.086;2023-07-24T03:38:28;98234.97;;;22.22;95.20
9289;BME280;4683;50.864;12.086;2023-07-24T03:40:57;98233.63;;;22.20;95.61
9289;BME280;4683;50.864;12.086;2023-07-24T03:43:25;98229.03;;;22.31;94.43
9289;BME280;4683;50.864;12.086;2023-07-24T03:45:54;98239.47;;;22.37;93.73
9289;BME280;4683;50.864;12.086;2023-07-24T03:48:23;98235.72;;;22.33;93.44
9289;BME280;4683;50.864;12.086;2023-07-24T03:50:59;98244.84;;;22.37;93.30
9289;BME280;4683;50.864;12.086;2023-07-24T03:53:32;98237.59;;;22.33;93.55
9289;BME280;4683;50.864;12.086;2023-07-24T03:56:02;98236.19;;;22.45;93.02
9289;BME280;4683;50.864;12.086;2023-07-24T03:58:31;98235.56;;;22.59;91.50
9289;BME280;4683;50.864;12.086;2023-07-24T04:00:59;98235.53;;;22.64;90.76
9289;BME280;4683;50.864;12.086;2023-07-24T04:03:28;98237.44;;;22.63;90.36
9289;BME280;4683;50.864;12.086;2023-07-24T04:05:57;98229.06;;;22.65;91.04
9289;BME280;4683;50.864;12.086;2023-07-24T04:08:25;98229.00;;;22.75;89.44
9289;BME280;4683;50.864;12.086;2023-07-24T04:10:55;98234.88;;;22.82;87.98
9289;BME280;4683;50.864;12.086;2023-07-24T04:13:24;98231.63;;;22.85;87.57
9289;BME280;4683;50.864;12.086;2023-07-24T04:15:52;98222.16;;;22.88;86.98
9289;BME280;4683;50.864;12.086;2023-07-24T04:18:21;98221.66;;;22.91;86.58
9289;BME280;4683;50.864;12.086;2023-07-24T04:20:53;98223.50;;;22.95;85.97
9289;BME280;4683;50.864;12.086;2023-07-24T04:23:23;98218.91;;;22.96;85.42
9289;BME280;4683;50.864;12.086;2023-07-24T04:25:52;98229.69;;;22.96;85.02
9289;BME280;4683;50.864;12.086;2023-07-24T04:28:22;98231.53;;;23.00;84.50
9289;BME280;4683;50.864;12.086;2023-07-24T04:31:01;98225.03;;;23.01;83.81
9289;BME280;4683;50.864;12.086;2023-07-24T04:37:35;98207.34;;;22.95;85.37
9289;BME280;4683;50.864;12.086;2023-07-24T04:40:07;98212.69;;;23.00;84.79
9289;BME280;4683;50.864;12.086;2023-07-24T04:42:35;98207.00;;;23.02;85.07
9289;BME280;4683;50.864;12.086;2023-07-24T04:45:24;98201.97;;;22.95;84.97
9289;BME280;4683;50.864;12.086;2023-07-24T04:47:53;98210.47;;;23.08;84.05
9289;BME280;4683;50.864;12.086;2023-07-24T04:50:23;98207.41;;;23.19;83.55
9289;BME280;4683;50.864;12.086;2023-07-24T04:52:53;98211.06;;;23.28;82.95
9289;BME280;4683;50.864;12.086;2023-07-24T04:55:23;98199.13;;;23.40;82.06
9289;BME280;4683;50.864;12.086;2023-07-24T04:57:53;98203.06;;;23.47;81.00
9289;BME280;4683;50.864;12.086;2023-07-24T05:00:24;98219.50;;;23.46;80.30
9289;BME280;4683;50.864;12.086;2023-07-24T05:03:07;98218.03;;;23.06;82.77
9289;BME280;4683;50.864;12.086;2023-07-24T05:05:40;98213.78;;;22.99;83.60
9289;BME280;4683;50.864;12.086;2023-07-24T05:08:09;98210.00;;;23.00;84.19
9289;BME280;4683;50.864;12.086;2023-07-24T05:10:37;98209.97;;;23.29;81.50
9289;BME280;4683;50.864;12.086;2023-07-24T05:13:06;98205.97;;;23.80;77.95
9289;BME280;4683;50.864;12.086;2023-07-24T05:15:37;98202.63;;;23.88;75.58
9289;BME280;4683;50.864;12.086;2023-07-24T05:18:05;98203.75;;;24.25;73.59
9289;BME280;4683;50.864;12.086;2023-07-24T05:20:35;98209.59;;;24.32;72.78
9289;BME280;4683;50.864;12.086;2023-07-24T05:23:04;98207.94;;;24.36;70.82
9289;BME280;4683;50.864;12.086;2023-07-24T05:25:44;98205.81;;;24.33;71.02
9289;BME280;4683;50.864;12.086;2023-07-24T05:28:14;98206.78;;;24.42;70.87
9289;BME280;4683;50.864;12.086;2023-07-24T05:30:45;98214.19;;;24.13;71.38
9289;BME280;4683;50.864;12.086;2023-07-24T05:33:13;98208.34;;;24.05;72.15
9289;BME280;4683;50.864;12.086;2023-07-24T05:35:42;98202.00;;;24.39;70.16
9289;BME280;4683;50.864;12.086;2023-07-24T05:38:12;98206.25;;;24.21;71.18
9289;BME280;4683;50.864;12.086;2023-07-24T05:40:41;98201.13;;;24.01;72.63
9289;BME280;4683;50.864;12.086;2023-07-24T05:43:09;98201.28;;;24.10;72.80
9289;BME280;4683;50.864;12.086;2023-07-24T05:45:39;98199.22;;;24.01;74.68
9289;BME280;4683;50.864;12.086;2023-07-24T05:48:11;98199.13;;;23.88;76.14
9289;BME280;4683;50.864;12.086;2023-07-24T05:50:39;98205.91;;;23.85;77.59
9289;BME280;4683;50.864;12.086;2023-07-24T05:53:09;98204.34;;;23.79;78.48
9289;BME280;4683;50.864;12.086;2023-07-24T05:55:37;98183.28;;;23.86;78.21
9289;BME280;4683;50.864;12.086;2023-07-24T05:58:06;98179.66;;;24.15;76.13
9289;BME280;4683;50.864;12.086;2023-07-24T06:00:35;98179.06;;;24.18;75.51
9289;BME280;4683;50.864;12.086;2023-07-24T06:03:04;98180.53;;;24.10;75.12
9289;BME280;4683;50.864;12.086;2023-07-24T06:05:35;98177.97;;;24.19;74.63
9289;BME280;4683;50.864;12.086;2023-07-24T06:08:04;98181.91;;;24.26;75.14
9289;BME280;4683;50.864;12.086;2023-07-24T06:10:33;98178.47;;;24.21;76.86
9289;BME280;4683;50.864;12.086;2023-07-24T06:13:02;98182.41;;;24.28;76.90
9289;BME280;4683;50.864;12.086;2023-07-24T06:15:32;98182.50;;;24.42;76.54
9289;BME280;4683;50.864;12.086;2023-07-24T06:18:01;98168.38;;;24.83;74.50
9289;BME280;4683;50.864;12.086;2023-07-24T06:20:31;98167.78;;;24.86;73.43
9289;BME280;4683;50.864;12.086;2023-07-24T06:23:02;98161.47;;;25.10;71.73
9289;BME280;4683;50.864;12.086;2023-07-24T06:25:31;98156.81;;;24.96;72.95
9289;BME280;4683;50.864;12.086;2023-07-24T06:28:00;98159.25;;;25.12;72.23
9289;BME280;4683;50.864;12.086;2023-07-24T06:30:34;98165.75;;;25.11;72.49
9289;BME280;4683;50.864;12.086;2023-07-24T06:33:03;98157.28;;;25.17;71.90
9289;BME280;4683;50.864;12.086;2023-07-24T06:35:31;98153.38;;;25.10;72.45
9289;BME280;4683;50.864;12.086;2023-07-24T06:38:06;98159.91;;;25.36;70.21
9289;BME280;4683;50.864;12.086;2023-07-24T06:40:37;98159.31;;;25.67;68.97
9289;BME280;4683;50.864;12.086;2023-07-24T06:43:10;98157.50;;;25.90;67.17
9289;BME280;4683;50.864;12.086;2023-07-24T06:45:39;98162.38;;;25.88;67.67
9289;BME280;4683;50.864;12.086;2023-07-24T06:48:09;98162.69;;;25.72;68.15
9289;BME280;4683;50.864;12.086;2023-07-24T06:50:39;98162.38;;;25.74;68.82
9289;BME280;4683;50.864;12.086;2023-07-24T06:53:13;98166.31;;;25.82;68.33
9289;BME280;4683;50.864;12.086;2023-07-24T06:55:42;98155.09;;;25.88;67.88
9289;BME280;4683;50.864;12.086;2023-07-24T06:58:11;98155.09;;;26.24;66.01
9289;BME280;4683;50.864;12.086;2023-07-24T07:00:40;98160.00;;;26.59;63.96
9289;BME280;4683;50.864;12.086;2023-07-24T07:03:09;98157.19;;;26.64;62.38
9289;BME280;4683;50.864;12.086;2023-07-24T07:05:39;98159.47;;;26.34;64.60
9289;BME280;4683;50.864;12.086;2023-07-24T07:08:08;98151.34;;;26.12;65.90
9289;BME280;4683;50.864;12.086;2023-07-24T07:10:38;98156.25;;;26.10;65.75
9289;BME280;4683;50.864;12.086;2023-07-24T07:13:09;98151.66;;;25.96;66.24
9289;BME280;4683;50.864;12.086;2023-07-24T07:15:37;98149.47;;;25.98;65.78
9289;BME280;4683;50.864;12.086;2023-07-24T07:18:07;98144.72;;;26.18;65.36
9289;BME280;4683;50.864;12.086;2023-07-24T07:20:37;98143.22;;;26.34;64.84
9289;BME280;4683;50.864;12.086;2023-07-24T07:23:07;98154.94;;;26.43;64.99
9289;BME280;4683;50.864;12.086;2023-07-24T07:25:38;98142.50;;;26.42;64.46
9289;BME280;4683;50.864;12.086;2023-07-24T07:28:06;98132.28;;;26.84;62.00
9289;BME280;4683;50.864;12.086;2023-07-24T07:30:37;98137.59;;;26.89;61.14
9289;BME280;4683;50.864;12.086;2023-07-24T07:33:07;98126.13;;;26.92;61.05
9289;BME280;4683;50.864;12.086;2023-07-24T07:35:36;98128.34;;;27.13;60.61
9289;BME280;4683;50.864;12.086;2023-07-24T07:38:05;98130.28;;;26.90;60.92
9289;BME280;4683;50.864;12.086;2023-07-24T07:40:33;98128.81;;;27.15;59.88
9289;BME280;4683;50.864;12.086;2023-07-24T07:43:03;98138.56;;;27.64;57.91
9289;BME280;4683;50.864;12.086;2023-07-24T07:45:32;98119.56;;;27.55;57.59
9289;BME280;4683;50.864;12.086;2023-07-24T07:48:01;98110.16;;;27.53;57.54
9289;BME280;4683;50.864;12.086;2023-07-24T07:50:30;98119.63;;;27.73;57.21
9289;BME280;4683;50.864;12.086;2023-07-24T07:52:59;98118.38;;;27.30;58.59
9289;BME280;4683;50.864;12.086;2023-07-24T07:55:29;98116.53;;;27.09;59.15
9289;BME280;4683;50.864;12.086;2023-07-24T07:57:57;98108.34;;;27.00;60.77
9289;BME280;4683;50.864;12.086;2023-07-24T08:00:29;98108.13;;;27.19;60.09
9289;BME280;4683;50.864;12.086;2023-07-24T08:02:57;98111.34;;;27.21;60.16
9289;BME280;4683;50.864;12.086;2023-07-24T08:05:26;98110.16;;;27.53;59.40
9289;BME280;4683;50.864;12.086;2023-07-24T08:07:56;98099.66;;;27.69;59.06
9289;BME280;4683;50.864;12.086;2023-07-24T08:10:25;98092.53;;;27.90;57.71
9289;BME280;4683;50.864;12.086;2023-07-24T08:12:53;98087.66;;;27.52;60.13
9289;BME280;4683;50.864;12.086;2023-07-24T08:15:22;98088.38;;;27.84;58.67
9289;BME280;4683;50.864;12.086;2023-07-24T08:17:52;98091.09;;;27.93;58.01
9289;BME280;4683;50.864;12.086;2023-07-24T08:20:20;98083.91;;;27.97;57.98
9289;BME280;4683;50.864;12.086;2023-07-24T08:22:51;98086.00;;;28.00;57.05
9289;BME280;4683;50.864;12.086;2023-07-24T08:25:20;98080.75;;;28.21;55.24
9289;BME280;4683;50.864;12.086;2023-07-24T08:27:51;98076.56;;;28.32;55.03
9289;BME280;4683;50.864;12.086;2023-07-24T08:30:25;98083.75;;;28.45;54.80
9289;BME280;4683;50.864;12.086;2023-07-24T08:32:56;98075.09;;;28.61;53.83
9289;BME280;4683;50.864;12.086;2023-07-24T08:35:26;98087.41;;;28.67;54.44
9289;BME280;4683;50.864;12.086;2023-07-24T08:37:54;98091.97;;;28.75;53.37
9289;BME280;4683;50.864;12.086;2023-07-24T08:40:23;98088.22;;;28.32;54.14
9289;BME280;4683;50.864;12.086;2023-07-24T08:42:52;98080.25;;;28.19;54.25
9289;BME280;4683;50.864;12.086;2023-07-24T08:45:22;98086.47;;;28.11;54.80
9289;BME280;4683;50.864;12.086;2023-07-24T08:47:52;98083.41;;;27.69;57.33
9289;BME280;4683;50.864;12.086;2023-07-24T08:50:22;98071.00;;;27.76;57.99
9289;BME280;4683;50.864;12.086;2023-07-24T08:52:52;98080.88;;;27.72;57.98
9289;BME280;4683;50.864;12.086;2023-07-24T08:55:22;98079.31;;;27.80;58.78
9289;BME280;4683;50.864;12.086;2023-07-24T08:57:59;98080.91;;;27.98;57.60
9289;BME280;4683;50.864;12.086;2023-07-24T09:00:31;98083.75;;;27.93;58.48
9289;BME280;4683;50.864;12.086;2023-07-24T09:03:08;98088.94;;;27.46;60.14
9289;BME280;4683;50.864;12.086;2023-07-24T09:05:41;98094.94;;;27.26;62.64
9289;BME280;4683;50.864;12.086;2023-07-24T09:08:10;98082.50;;;27.25;63.70
9289;BME280;4683;50.864;12.086;2023-07-24T09:10:38;98113.56;;;26.96;75.88
9289;BME280;4683;50.864;12.086;2023-07-24T09:13:08;98142.31;;;26.39;92.78
9289;BME280;4683;50.864;12.086;2023-07-24T09:15:43;98128.44;;;25.95;100.00
9289;BME280;4683;50.864;12.086;2023-07-24T09:18:11;98126.38;;;26.15;100.00
9289;BME280;4683;50.864;12.086;2023-07-24T09:20:50;98114.16;;;26.17;100.00
9289;BME280;4683;50.864;12.086;2023-07-24T09:23:35;98118.47;;;25.82;100.00
9289;BME280;4683;50.864;12.086;2023-07-24T09:26:07;98119.84;;;25.66;100.00
9289;BME280;4683;50.864;12.086;2023-07-24T09:28:37;98106.47;;;25.33;100.00
9289;BME280;4683;50.864;12.086;2023-07-24T09:31:11;98104.31;;;25.35;100.00
9289;BME280;4683;50.864;12.086;2023-07-24T09:33:42;98102.66;;;25.75;100.00
9289;BME280;4683;50.864;12.086;2023-07-24T09:36:12;98102.28;;;26.04;100.00
9289;BME280;4683;50.864;12.086;2023-07-24T09:38:45;98097.94;;;26.17;100.00
9289;BME280;4683;50.864;12.086;2023-07-24T09:41:28;98097.25;;;25.89;100.00
9289;BME280;4683;50.864;12.086;2023-07-24T09:43:58;98092.44;;;25.86;100.00
9289;BME280;4683;50.864;12.086;2023-07-24T09:46:28;98081.84;;;26.12;100.00
9289;BME280;4683;50.864;12.086;2023-07-24T09:49:02;98068.19;;;26.40;100.00
9289;BME280;4683;50.864;12.086;2023-07-24T09:51:32;98057.00;;;26.55;100.00
9289;BME280;4683;50.864;12.086;2023-07-24T09:54:09;98054.69;;;26.62;100.00
9289;BME280;4683;50.864;12.086;2023-07-24T09:56:41;98035.41;;;26.64;100.00
9289;BME280;4683;50.864;12.086;2023-07-24T09:59:11;98030.28;;;26.93;97.40
9289;BME280;4683;50.864;12.086;2023-07-24T10:01:40;98019.53;;;26.71;93.99
9289;BME280;4683;50.864;12.086;2023-07-24T10:04:10;98007.94;;;26.79;91.40
9289;BME280;4683;50.864;12.086;2023-07-24T10:06:41;98017.31;;;26.73;91.83
9289;BME280;4683;50.864;12.086;2023-07-24T10:09:10;98025.81;;;26.97;87.48
9289;BME280;4683;50.864;12.086;2023-07-24T10:11:40;98015.50;;;26.99;88.09
9289;BME280;4683;50.864;12.086;2023-07-24T10:14:08;98014.81;;;26.85;86.52
9289;BME280;4683;50.864;12.086;2023-07-24T10:16:38;98008.03;;;27.05;86.81
9289;BME280;4683;50.864;12.086;2023-07-24T10:19:14;98007.94;;;27.19;85.54
9289;BME280;4683;50.864;12.086;2023-07-24T10:21:51;98003.81;;;27.21;88.17
9289;BME280;4683;50.864;12.086;2023-07-24T10:24:21;98003.19;;;26.93;87.72
9289;BME280;4683;50.864;12.086;2023-07-24T10:26:57;98011.31;;;26.93;88.59
9289;BME280;4683;50.864;12.086;2023-07-24T10:29:36;98004.75;;;27.17;83.48
9289;BME280;4683;50.864;12.086;2023-07-24T10:32:19;97998.69;;;27.20;84.06
9289;BME280;4683;50.864;12.086;2023-07-24T10:34:57;97989.94;;;27.31;82.28
9289;BME280;4683;50.864;12.086;2023-07-24T10:37:37;97987.09;;;27.45;81.35
9289;BME280;4683;50.864;12.086;2023-07-24T10:40:07;97983.59;;;27.79;80.03
9289;BME280;4683;50.864;12.086;2023-07-24T10:42:49;97977.47;;;28.26;77.51
9289;BME280;4683;50.864;12.086;2023-07-24T10:45:49;97970.81;;;28.06;74.74
9289;BME280;4683;50.864;12.086;2023-07-24T10:48:19;97973.16;;;28.25;75.00
9289;BME280;4683;50.864;12.086;2023-07-24T10:50:50;97964.03;;;28.47;73.97
9289;BME280;4683;50.864;12.086;2023-07-24T10:53:22;97954.56;;;28.62;71.04
9289;BME280;4683;50.864;12.086;2023-07-24T10:55:52;97965.97;;;28.38;74.05
9289;BME280;4683;50.864;12.086;2023-07-24T10:58:27;97973.47;;;28.32;72.40
9289;BME280;4683;50.864;12.086;2023-07-24T11:00:56;97956.16;;;28.63;71.07
9289;BME280;4683;50.864;12.086;2023-07-24T11:03:26;97961.16;;;28.43;71.79
9289;BME280;4683;50.864;12.086;2023-07-24T11:05:56;97965.50;;;28.27;73.31
9289;BME280;4683;50.864;12.086;2023-07-24T11:08:25;97963.53;;;28.53;71.60
9289;BME280;4683;50.864;12.086;2023-07-24T11:10:57;97964.34;;;28.54;70.52
9289;BME280;4683;50.864;12.086;2023-07-24T11:13:28;97973.63;;;28.82;67.81
9289;BME280;4683;50.864;12.086;2023-07-24T11:15:57;97965.25;;;28.96;63.74
9289;BME280;4683;50.864;12.086;2023-07-24T11:18:31;97969.56;;;28.97;60.88
9289;BME280;4683;50.864;12.086;2023-07-24T11:21:01;97970.75;;;28.79;61.03
9289;BME280;4683;50.864;12.086;2023-07-24T11:23:31;97966.22;;;28.62;59.96
9289;BME280;4683;50.864;12.086;2023-07-24T11:26:00;97973.00;;;28.77;61.64
9289;BME280;4683;50.864;12.086;2023-07-24T11:28:40;97969.03;;;28.19;65.23
9289;BME280;4683;50.864;12.086;2023-07-24T11:31:08;97962.69;;;27.97;68.36
9289;BME280;4683;50.864;12.086;2023-07-24T11:33:38;97957.00;;;27.73;70.91
9289;BME280;4683;50.864;12.086;2023-07-24T11:36:08;97956.97;;;27.90;69.87
9289;BME280;4683;50.864;12.086;2023-07-24T11:38:39;97961.13;;;27.79;71.38
9289;BME280;4683;50.864;12.086;2023-07-24T11:41:08;97957.94;;;27.86;72.10
9289;BME280;4683;50.864;12.086;2023-07-24T11:43:46;97968.63;;;27.73;73.67
9289;BME280;4683;50.864;12.086;2023-07-24T11:46:26;97973.59;;;27.80;73.45
9289;BME280;4683;50.864;12.086;2023-07-24T11:48:55;97972.44;;;27.64;78.60
9289;BME280;4683;50.864;12.086;2023-07-24T11:51:26;97975.25;;;28.37;74.20
9289;BME280;4683;50.864;12.086;2023-07-24T11:54:06;97970.75;;;28.41;72.52
9289;BME280;4683;50.864;12.086;2023-07-24T11:56:37;97954.84;;;28.69;72.16
9289;BME280;4683;50.864;12.086;2023-07-24T11:59:14;97950.91;;;28.58;72.17
9289;BME280;4683;50.864;12.086;2023-07-24T12:01:46;97940.53;;;28.51;73.14
9289;BME280;4683;50.864;12.086;2023-07-24T12:04:17;97935.91;;;28.51;74.28
9289;BME280;4683;50.864;12.086;2023-07-24T12:07:08;97932.94;;;28.27;75.63
9289;BME280;4683;50.864;12.086;2023-07-24T12:09:38;97933.59;;;28.24;78.11
9289;BME280;4683;50.864;12.086;2023-07-24T12:12:10;97925.38;;;28.50;75.86
9289;BME280;4683;50.864;12.086;2023-07-24T12:14:45;97922.03;;;28.53;75.32
9289;BME280;4683;50.864;12.086;2023-07-24T12:17:19;97929.53;;;28.47;76.11
9289;BME280;4683;50.864;12.086;2023-07-24T12:19:47;97942.47;;;28.50;75.76
9289;BME280;4683;50.864;12.086;2023-07-24T12:22:19;97938.81;;;28.46;76.61
9289;BME280;4683;50.864;12.086;2023-07-24T12:24:49;97933.25;;;28.72;75.04
9289;BME280;4683;50.864;12.086;2023-07-24T12:27:18;97937.75;;;28.30;78.75
9289;BME280;4683;50.864;12.086;2023-07-24T12:29:48;97940.50;;;28.13;82.41
9289;BME280;4683;50.864;12.086;2023-07-24T12:32:17;97938.03;;;28.28;81.56
9289;BME280;4683;50.864;12.086;2023-07-24T12:34:47;97943.41;;;27.90;84.89
9289;BME280;4683;50.864;12.086;2023-07-24T12:37:16;97927.63;;;27.92;86.05
9289;BME280;4683;50.864;12.086;2023-07-24T12:39:44;97930.63;;;28.08;85.28
9289;BME280;4683;50.864;12.086;2023-07-24T12:42:14;97935.06;;;28.13;85.08
9289;BME280;4683;50.864;12.086;2023-07-24T12:44:45;97928.22;;;27.98;87.39
9289;BME280;4683;50.864;12.086;2023-07-24T12:47:13;97927.88;;;28.17;86.19
9289;BME280;4683;50.864;12.086;2023-07-24T12:49:42;97908.22;;;28.67;81.11
9289;BME280;4683;50.864;12.086;2023-07-24T12:52:11;97922.22;;;29.07;77.15
9289;BME280;4683;50.864;12.086;2023-07-24T12:54:40;97906.66;;;28.87;78.82
9289;BME280;4683;50.864;12.086;2023-07-24T12:57:08;97887.97;;;29.15;77.33
9289;BME280;4683;50.864;12.086;2023-07-24T12:59:42;97873.41;;;29.73;70.66
9289;BME280;4683;50.864;12.086;2023-07-24T13:02:12;97882.44;;;29.65;70.50
9289;BME280;4683;50.864;12.086;2023-07-24T13:04:46;97870.03;;;28.72;74.96
9289;BME280;4683;50.864;12.086;2023-07-24T13:07:15;97869.28;;;28.63;72.79
9289;BME280;4683;50.864;12.086;2023-07-24T13:09:44;97859.88;;;28.60;66.30
9289;BME280;4683;50.864;12.086;2023-07-24T13:12:12;97862.31;;;28.15;64.38
9289;BME280;4683;50.864;12.086;2023-07-24T13:14:42;97856.97;;;27.89;64.83
9289;BME280;4683;50.864;12.086;2023-07-24T13:17:12;97861.69;;;28.47;61.45
9289;BME280;4683;50.864;12.086;2023-07-24T13:19:41;97847.69;;;28.45;62.78
9289;BME280;4683;50.864;12.086;2023-07-24T13:22:11;97838.59;;;28.32;66.31
9289;BME280;4683;50.864;12.086;2023-07-24T13:24:41;97832.72;;;28.60;64.31
9289;BME280;4683;50.864;12.086;2023-07-24T13:27:10;97836.88;;;28.66;64.03
9289;BME280;4683;50.864;12.086;2023-07-24T13:29:39;97834.09;;;28.45;64.70
9289;BME280;4683;50.864;12.086;2023-07-24T13:32:09;97842.00;;;28.59;63.43
9289;BME280;4683;50.864;12.086;2023-07-24T13:34:38;97849.94;;;28.64;61.68